sensor_id;sensor_type;location;lat;lon;timestamp;pressure;altitude;pressure_sealevel;temperature;humidity
69145;BME280;56251;50.324;17.574;2023-01-30T00:01:25;101922.91;;;-0.90;70.85
69145;BME280;56251;50.324;17.574;2023-01-30T00:02:17;101924.23;;;-0.88;70.76
69145;BME280;56251;50.324;17.574;2023-01-30T00:04:30;101915.55;;;-0.85;70.50
69145;BME280;56251;50.324;17.574;2023-01-30T00:05:23;101917.64;;;-0.83;70.21
69145;BME280;56251;50.324;17.574;2023-01-30T00:07:37;101914.23;;;-0.82;69.77
69145;BME280;56251;50.324;17.574;2023-01-30T00:08:29;101909.30;;;-0.81;69.61
69145;BME280;56251;50.324;17.574;2023-01-30T00:10:44;101906.88;;;-0.82;69.17
69145;BME280;56251;50.324;17.574;2023-01-30T00:11:35;101906.14;;;-0.84;69.11
69145;BME280;56251;50.324;17.574;2023-01-30T00:13:50;101895.02;;;-0.89;69.05
69145;BME280;56251;50.324;17.574;2023-01-30T00:14:41;101894.33;;;-0.90;69.07
69145;BME280;56251;50.324;17.574;2023-01-30T00:16:56;101891.91;;;-0.94;69.02
69145;BME280;56251;50.324;17.574;2023-01-30T00:17:47;101887.17;;;-0.98;69.09
69145;BME280;56251;50.324;17.574;2023-01-30T00:20:03;101878.18;;;-1.00;69.30
69145;BME280;56251;50.324;17.574;2023-01-30T00:20:55;101875.10;;;-1.03;69.41
69145;BME280;56251;50.324;17.574;2023-01-30T00:23:09;101872.24;;;-1.21;70.79
69145;BME280;56251;50.324;17.574;2023-01-30T00:24:01;101869.28;;;-1.22;71.01
69145;BME280;56251;50.324;17.574;2023-01-30T00:26:15;101868.96;;;-1.22;71.13
69145;BME280;56251;50.324;17.574;2023-01-30T00:27:07;101869.20;;;-1.23;71.17
69145;BME280;56251;50.324;17.574;2023-01-30T00:29:21;101867.30;;;-1.20;71.30
69145;BME280;56251;50.324;17.574;2023-01-30T00:30:13;101864.92;;;-1.19;71.22
69145;BME280;56251;50.324;17.574;2023-01-30T00:32:27;101860.97;;;-1.13;70.76
69145;BME280;56251;50.324;17.574;2023-01-30T00:33:21;101857.59;;;-1.14;70.63
69145;BME280;56251;50.324;17.574;2023-01-30T00:35:34;101851.30;;;-1.11;70.04
69145;BME280;56251;50.324;17.574;2023-01-30T00:36:27;101848.28;;;-1.14;69.96
69145;BME280;56251;50.324;17.574;2023-01-30T00:38:40;101845.70;;;-1.17;70.00
69145;BME280;56251;50.324;17.574;2023-01-30T00:39:33;101846.44;;;-1.15;69.90
69145;BME280;56251;50.324;17.574;2023-01-30T00:41:46;101840.31;;;-1.16;69.55
69145;BME280;56251;50.324;17.574;2023-01-30T00:42:39;101840.36;;;-1.18;69.32
69145;BME280;56251;50.324;17.574;2023-01-30T00:45:30;101835.53;;;-1.24;68.67
69145;BME280;56251;50.324;17.574;2023-01-30T00:46:30;101834.45;;;-1.30;68.51
69145;BME280;56251;50.324;17.574;2023-01-30T00:49:14;101835.80;;;-1.33;68.08
69145;BME280;56251;50.324;17.574;2023-01-30T00:50:14;101828.42;;;-1.34;67.95
69145;BME280;56251;50.324;17.574;2023-01-30T00:52:21;101823.06;;;-1.40;67.79
69145;BME280;56251;50.324;17.574;2023-01-30T00:53:18;101816.62;;;-1.43;67.85
69145;BME280;56251;50.324;17.574;2023-01-30T00:55:27;101804.25;;;-1.55;68.04
69145;BME280;56251;50.324;17.574;2023-01-30T00:56:24;101801.26;;;-1.58;68.19
69145;BME280;56251;50.324;17.574;2023-01-30T00:58:33;101799.50;;;-1.60;68.65
69145;BME280;56251;50.324;17.574;2023-01-30T00:59:35;101799.16;;;-1.57;68.63
69145;BME280;56251;50.324;17.574;2023-01-30T01:01:39;101793.25;;;-1.54;68.35
69145;BME280;56251;50.324;17.574;2023-01-30T01:02:40;101793.17;;;-1.56;68.29
69145;BME280;56251;50.324;17.574;2023-01-30T01:04:45;101780.01;;;-1.63;69.05
69145;BME280;56251;50.324;17.574;2023-01-30T01:05:50;101780.46;;;-1.64;69.39
69145;BME280;56251;50.324;17.574;2023-01-30T01:07:51;101773.67;;;-1.72;71.65
69145;BME280;56251;50.324;17.574;2023-01-30T01:08:56;101775.29;;;-1.59;71.66
69145;BME280;56251;50.324;17.574;2023-01-30T01:10:57;101775.22;;;-1.67;71.40
69145;BME280;56251;50.324;17.574;2023-01-30T01:12:03;101766.12;;;-1.67;71.22
69145;BME280;56251;50.324;17.574;2023-01-30T01:14:04;101762.62;;;-1.62;70.45
69145;BME280;56251;50.324;17.574;2023-01-30T01:15:10;101761.79;;;-1.61;70.18
69145;BME280;56251;50.324;17.574;2023-01-30T01:17:10;101757.94;;;-1.59;69.58
69145;BME280;56251;50.324;17.574;2023-01-30T01:18:17;101754.82;;;-1.60;69.32
69145;BME280;56251;50.324;17.574;2023-01-30T01:20:17;101752.41;;;-1.62;68.79
69145;BME280;56251;50.324;17.574;2023-01-30T01:21:23;101753.59;;;-1.63;68.56
69145;BME280;56251;50.324;17.574;2023-01-30T01:23:23;101750.02;;;-1.67;68.31
69145;BME280;56251;50.324;17.574;2023-01-30T01:24:31;101749.66;;;-1.70;68.17
69145;BME280;56251;50.324;17.574;2023-01-30T01:26:29;101741.73;;;-1.76;67.96
69145;BME280;56251;50.324;17.574;2023-01-30T01:27:36;101741.47;;;-1.91;67.19
69145;BME280;56251;50.324;17.574;2023-01-30T01:29:35;101734.92;;;-2.50;68.20
69145;BME280;56251;50.324;17.574;2023-01-30T01:30:43;101738.97;;;-2.63;69.75
69145;BME280;56251;50.324;17.574;2023-01-30T01:32:41;101735.49;;;-2.60;70.27
69145;BME280;56251;50.324;17.574;2023-01-30T01:33:50;101738.83;;;-2.46;69.94
69145;BME280;56251;50.324;17.574;2023-01-30T01:35:47;101731.77;;;-2.34;69.51
69145;BME280;56251;50.324;17.574;2023-01-30T01:36:56;101726.94;;;-2.36;69.73
69145;BME280;56251;50.324;17.574;2023-01-30T01:38:53;101723.38;;;-2.28;70.15
69145;BME280;56251;50.324;17.574;2023-01-30T01:40:04;101723.00;;;-2.20;70.22
69145;BME280;56251;50.324;17.574;2023-01-30T01:42:00;101715.90;;;-2.07;70.03
69145;BME280;56251;50.324;17.574;2023-01-30T01:44:03;101708.83;;;-1.96;69.99
69145;BME280;56251;50.324;17.574;2023-01-30T01:47:08;101702.52;;;-1.84;69.53
69145;BME280;56251;50.324;17.574;2023-01-30T01:48:31;101695.83;;;-1.79;69.44
69145;BME280;56251;50.324;17.574;2023-01-30T01:50:20;101690.77;;;-1.74;69.37
69145;BME280;56251;50.324;17.574;2023-01-30T01:51:39;101687.20;;;-1.69;69.32
69145;BME280;56251;50.324;17.574;2023-01-30T01:53:27;101683.91;;;-1.61;69.27
69145;BME280;56251;50.324;17.574;2023-01-30T01:54:46;101684.26;;;-1.55;69.17
69145;BME280;56251;50.324;17.574;2023-01-30T01:56:34;101678.96;;;-1.53;69.42
69145;BME280;56251;50.324;17.574;2023-01-30T01:57:55;101675.38;;;-1.48;69.53
69145;BME280;56251;50.324;17.574;2023-01-30T01:59:49;101670.83;;;-1.41;69.42
69145;BME280;56251;50.324;17.574;2023-01-30T02:01:01;101672.13;;;-1.41;69.52
69145;BME280;56251;50.324;17.574;2023-01-30T02:03:00;101667.47;;;-1.53;69.63
69145;BME280;56251;50.324;17.574;2023-01-30T02:04:08;101668.61;;;-1.52;69.55
69145;BME280;56251;50.324;17.574;2023-01-30T02:06:04;101659.59;;;-1.45;68.93
69145;BME280;56251;50.324;17.574;2023-01-30T02:07:16;101658.13;;;-1.45;68.63
69145;BME280;56251;50.324;17.574;2023-01-30T02:09:11;101646.94;;;-1.47;67.96
69145;BME280;56251;50.324;17.574;2023-01-30T02:10:26;101649.28;;;-1.59;67.38
69145;BME280;56251;50.324;17.574;2023-01-30T02:12:17;101644.63;;;-1.63;67.24
69145;BME280;56251;50.324;17.574;2023-01-30T02:13:31;101646.28;;;-1.69;67.06
69145;BME280;56251;50.324;17.574;2023-01-30T02:15:23;101650.90;;;-1.85;66.29
69145;BME280;56251;50.324;17.574;2023-01-30T02:16:43;101648.13;;;-1.91;65.91
69145;BME280;56251;50.324;17.574;2023-01-30T02:18:30;101638.31;;;-1.89;65.41
69145;BME280;56251;50.324;17.574;2023-01-30T02:20:04;101633.95;;;-1.94;65.35
69145;BME280;56251;50.324;17.574;2023-01-30T02:23:42;101636.15;;;-2.07;65.48
69145;BME280;56251;50.324;17.574;2023-01-30T02:25:25;101631.27;;;-2.09;65.46
69145;BME280;56251;50.324;17.574;2023-01-30T02:27:13;101629.03;;;-2.09;65.43
69145;BME280;56251;50.324;17.574;2023-01-30T02:34:06;101633.11;;;-2.36;66.82
69145;BME280;56251;50.324;17.574;2023-01-30T02:39:01;101616.37;;;-2.33;67.34
69145;BME280;56251;50.324;17.574;2023-01-30T02:41:01;101616.45;;;-2.32;67.52
69145;BME280;56251;50.324;17.574;2023-01-30T02:42:19;101612.96;;;-2.30;67.59
69145;BME280;56251;50.324;17.574;2023-01-30T02:44:17;101605.45;;;-2.26;67.60
69145;BME280;56251;50.324;17.574;2023-01-30T02:45:29;101602.17;;;-2.28;67.90
69145;BME280;56251;50.324;17.574;2023-01-30T02:47:40;101607.60;;;-2.17;68.07
69145;BME280;56251;50.324;17.574;2023-01-30T02:48:51;101609.28;;;-2.12;68.31
69145;BME280;56251;50.324;17.574;2023-01-30T02:50:51;101622.56;;;-2.18;69.22
69145;BME280;56251;50.324;17.574;2023-01-30T02:51:56;101622.64;;;-2.14;69.15
69145;BME280;56251;50.324;17.574;2023-01-30T02:53:54;101614.06;;;-2.10;69.30
69145;BME280;56251;50.324;17.574;2023-01-30T02:55:24;101613.69;;;-1.94;68.72
69145;BME280;56251;50.324;17.574;2023-01-30T02:57:00;101613.92;;;-2.04;68.69
69145;BME280;56251;50.324;17.574;2023-01-30T02:58:33;101613.20;;;-1.95;68.56
69145;BME280;56251;50.324;17.574;2023-01-30T03:00:11;101605.89;;;-1.95;68.53
69145;BME280;56251;50.324;17.574;2023-01-30T03:02:01;101597.84;;;-1.88;68.61
69145;BME280;56251;50.324;17.574;2023-01-30T03:05:20;101595.13;;;-1.63;68.51
69145;BME280;56251;50.324;17.574;2023-01-30T03:07:01;101589.66;;;-1.52;68.44
69145;BME280;56251;50.324;17.574;2023-01-30T03:08:33;101585.99;;;-1.41;68.37
69145;BME280;56251;50.324;17.574;2023-01-30T03:10:25;101579.29;;;-1.34;68.21
69145;BME280;56251;50.324;17.574;2023-01-30T03:13:57;101568.84;;;-1.12;68.29
69145;BME280;56251;50.324;17.574;2023-01-30T03:15:10;101560.19;;;-1.03;68.32
69145;BME280;56251;50.324;17.574;2023-01-30T03:17:01;101556.57;;;-0.96;68.38
69145;BME280;56251;50.324;17.574;2023-01-30T03:18:19;101558.05;;;-0.89;68.35
69145;BME280;56251;50.324;17.574;2023-01-30T03:20:09;101552.08;;;-1.21;68.20
69145;BME280;56251;50.324;17.574;2023-01-30T03:21:25;101549.48;;;-1.15;68.29
69145;BME280;56251;50.324;17.574;2023-01-30T03:23:15;101540.96;;;-1.03;67.96
69145;BME280;56251;50.324;17.574;2023-01-30T03:24:31;101535.90;;;-0.92;67.90
69145;BME280;56251;50.324;17.574;2023-01-30T03:26:28;101533.02;;;-0.77;67.94
69145;BME280;56251;50.324;17.574;2023-01-30T03:27:38;101529.50;;;-0.67;67.76
69145;BME280;56251;50.324;17.574;2023-01-30T03:29:34;101521.97;;;-0.57;67.83
69145;BME280;56251;50.324;17.574;2023-01-30T03:30:45;101526.64;;;-0.52;67.97
69145;BME280;56251;50.324;17.574;2023-01-30T03:32:40;101512.64;;;-0.42;67.78
69145;BME280;56251;50.324;17.574;2023-01-30T03:33:51;101509.57;;;-0.39;67.79
69145;BME280;56251;50.324;17.574;2023-01-30T03:35:47;101500.23;;;-0.36;67.93
69145;BME280;56251;50.324;17.574;2023-01-30T03:36:57;101497.27;;;-0.25;67.87
69145;BME280;56251;50.324;17.574;2023-01-30T03:38:53;101495.75;;;-0.06;67.39
69145;BME280;56251;50.324;17.574;2023-01-30T03:40:03;101484.59;;;-0.09;67.44
69145;BME280;56251;50.324;17.574;2023-01-30T03:41:59;101489.95;;;-0.02;67.56
69145;BME280;56251;50.324;17.574;2023-01-30T03:43:09;101490.07;;;0.07;67.64
69145;BME280;56251;50.324;17.574;2023-01-30T03:45:06;101487.77;;;0.13;67.26
69145;BME280;56251;50.324;17.574;2023-01-30T03:46:15;101495.25;;;0.16;67.29
69145;BME280;56251;50.324;17.574;2023-01-30T03:48:12;101500.19;;;0.24;67.26
69145;BME280;56251;50.324;17.574;2023-01-30T03:49:21;101500.52;;;0.30;67.06
69145;BME280;56251;50.324;17.574;2023-01-30T03:51:18;101501.41;;;0.22;66.99
69145;BME280;56251;50.324;17.574;2023-01-30T03:52:27;101502.36;;;0.25;67.06
69145;BME280;56251;50.324;17.574;2023-01-30T03:54:24;101501.74;;;0.27;67.04
69145;BME280;56251;50.324;17.574;2023-01-30T03:55:33;101493.39;;;0.10;67.00
69145;BME280;56251;50.324;17.574;2023-01-30T03:57:30;101499.33;;;0.12;66.45
69145;BME280;56251;50.324;17.574;2023-01-30T03:58:39;101497.98;;;0.06;66.53
69145;BME280;56251;50.324;17.574;2023-01-30T04:00:37;101495.91;;;0.15;66.44
69145;BME280;56251;50.324;17.574;2023-01-30T04:01:46;101492.91;;;0.21;66.53
69145;BME280;56251;50.324;17.574;2023-01-30T04:03:43;101480.82;;;0.24;66.76
69145;BME280;56251;50.324;17.574;2023-01-30T04:04:52;101485.12;;;0.28;66.87
69145;BME280;56251;50.324;17.574;2023-01-30T04:06:49;101477.99;;;0.40;66.78
69145;BME280;56251;50.324;17.574;2023-01-30T04:07:58;101472.75;;;0.45;66.59
69145;BME280;56251;50.324;17.574;2023-01-30T04:09:55;101464.08;;;0.43;65.64
69145;BME280;56251;50.324;17.574;2023-01-30T04:11:04;101454.95;;;0.33;65.27
69145;BME280;56251;50.324;17.574;2023-01-30T04:13:01;101452.31;;;0.08;64.95
69145;BME280;56251;50.324;17.574;2023-01-30T04:14:10;101446.00;;;0.10;64.88
69145;BME280;56251;50.324;17.574;2023-01-30T04:16:21;101442.01;;;-0.42;66.55
69145;BME280;56251;50.324;17.574;2023-01-30T04:17:16;101432.44;;;-0.35;66.86
69145;BME280;56251;50.324;17.574;2023-01-30T04:19:26;101424.83;;;-0.35;66.67
69145;BME280;56251;50.324;17.574;2023-01-30T04:20:23;101421.20;;;-0.44;66.76
69145;BME280;56251;50.324;17.574;2023-01-30T04:22:33;101414.69;;;-0.47;67.21
69145;BME280;56251;50.324;17.574;2023-01-30T04:23:29;101415.19;;;-0.53;67.56
69145;BME280;56251;50.324;17.574;2023-01-30T04:25:39;101412.79;;;-0.62;67.92
69145;BME280;56251;50.324;17.574;2023-01-30T04:26:35;101409.13;;;-0.61;68.00
69145;BME280;56251;50.324;17.574;2023-01-30T04:28:45;101401.55;;;-0.38;67.86
69145;BME280;56251;50.324;17.574;2023-01-30T04:29:47;101399.70;;;-0.28;67.88
69145;BME280;56251;50.324;17.574;2023-01-30T04:31:51;101397.17;;;-0.18;67.50
69145;BME280;56251;50.324;17.574;2023-01-30T04:32:53;101402.16;;;-0.12;66.98
69145;BME280;56251;50.324;17.574;2023-01-30T04:34:57;101410.73;;;0.02;66.60
69145;BME280;56251;50.324;17.574;2023-01-30T04:36:02;101415.52;;;-0.01;66.06
69145;BME280;56251;50.324;17.574;2023-01-30T04:38:03;101425.05;;;-0.01;65.57
69145;BME280;56251;50.324;17.574;2023-01-30T04:39:09;101439.28;;;0.05;65.40
69145;BME280;56251;50.324;17.574;2023-01-30T04:41:09;101448.73;;;0.18;65.10
69145;BME280;56251;50.324;17.574;2023-01-30T04:42:15;101452.06;;;0.28;64.91
69145;BME280;56251;50.324;17.574;2023-01-30T04:44:15;101463.99;;;0.14;64.59
69145;BME280;56251;50.324;17.574;2023-01-30T04:45:21;101453.50;;;0.20;64.62
69145;BME280;56251;50.324;17.574;2023-01-30T04:47:21;101442.84;;;0.34;64.38
69145;BME280;56251;50.324;17.574;2023-01-30T04:48:27;101442.19;;;0.39;64.10
69145;BME280;56251;50.324;17.574;2023-01-30T04:50:27;101437.25;;;0.46;64.10
69145;BME280;56251;50.324;17.574;2023-01-30T04:51:33;101444.87;;;0.49;64.03
69145;BME280;56251;50.324;17.574;2023-01-30T04:53:33;101448.37;;;0.49;63.97
69145;BME280;56251;50.324;17.574;2023-01-30T04:54:39;101452.30;;;0.42;63.91
69145;BME280;56251;50.324;17.574;2023-01-30T04:56:39;101462.24;;;0.29;64.37
69145;BME280;56251;50.324;17.574;2023-01-30T04:57:45;101467.05;;;0.30;64.50
69145;BME280;56251;50.324;17.574;2023-01-30T04:59:45;101456.01;;;0.43;64.56
69145;BME280;56251;50.324;17.574;2023-01-30T05:00:51;101444.48;;;0.47;64.30
69145;BME280;56251;50.324;17.574;2023-01-30T05:02:52;101422.76;;;0.64;64.13
69145;BME280;56251;50.324;17.574;2023-01-30T05:03:57;101415.09;;;0.71;63.79
69145;BME280;56251;50.324;17.574;2023-01-30T05:05:59;101397.57;;;0.91;62.59
69145;BME280;56251;50.324;17.574;2023-01-30T05:07:03;101388.02;;;0.83;62.71
69145;BME280;56251;50.324;17.574;2023-01-30T05:09:05;101394.88;;;0.69;62.99
69145;BME280;56251;50.324;17.574;2023-01-30T05:10:10;101387.93;;;0.75;62.84
69145;BME280;56251;50.324;17.574;2023-01-30T05:12:11;101361.51;;;0.79;62.77
69145;BME280;56251;50.324;17.574;2023-01-30T05:13:16;101354.90;;;0.88;62.47
69145;BME280;56251;50.324;17.574;2023-01-30T05:15:17;101352.25;;;0.93;62.29
69145;BME280;56251;50.324;17.574;2023-01-30T05:16:23;101354.38;;;0.92;62.46
69145;BME280;56251;50.324;17.574;2023-01-30T05:18:23;101367.12;;;0.93;62.74
69145;BME280;56251;50.324;17.574;2023-01-30T05:19:29;101360.06;;;0.96;62.93
69145;BME280;56251;50.324;17.574;2023-01-30T05:21:29;101354.52;;;1.04;63.05
69145;BME280;56251;50.324;17.574;2023-01-30T05:22:35;101360.34;;;1.09;63.07
69145;BME280;56251;50.324;17.574;2023-01-30T05:24:35;101357.66;;;1.12;62.90
69145;BME280;56251;50.324;17.574;2023-01-30T05:25:41;101354.03;;;1.15;62.83
69145;BME280;56251;50.324;17.574;2023-01-30T05:27:41;101351.38;;;1.09;63.07
69145;BME280;56251;50.324;17.574;2023-01-30T05:28:54;101342.91;;;1.11;63.16
69145;BME280;56251;50.324;17.574;2023-01-30T05:30:47;101332.86;;;1.17;63.14
69145;BME280;56251;50.324;17.574;2023-01-30T05:32:02;101330.72;;;1.17;62.97
69145;BME280;56251;50.324;17.574;2023-01-30T05:33:53;101334.77;;;1.24;62.66
69145;BME280;56251;50.324;17.574;2023-01-30T05:35:12;101326.02;;;1.15;62.62
69145;BME280;56251;50.324;17.574;2023-01-30T05:37:00;101328.84;;;0.85;63.21
69145;BME280;56251;50.324;17.574;2023-01-30T05:38:18;101319.77;;;0.79;63.78
69145;BME280;56251;50.324;17.574;2023-01-30T05:40:07;101319.97;;;0.88;63.42
69145;BME280;56251;50.324;17.574;2023-01-30T05:41:24;101316.63;;;0.78;63.34
69145;BME280;56251;50.324;17.574;2023-01-30T05:43:14;101318.18;;;0.61;63.90
69145;BME280;56251;50.324;17.574;2023-01-30T05:44:30;101308.61;;;0.71;63.85
69145;BME280;56251;50.324;17.574;2023-01-30T05:46:20;101293.13;;;0.87;62.95
69145;BME280;56251;50.324;17.574;2023-01-30T05:47:36;101288.24;;;0.70;62.85
69145;BME280;56251;50.324;17.574;2023-01-30T05:49:26;101273.49;;;0.59;62.64
69145;BME280;56251;50.324;17.574;2023-01-30T05:50:44;101275.66;;;0.58;62.61
69145;BME280;56251;50.324;17.574;2023-01-30T05:52:32;101284.00;;;0.70;62.69
69145;BME280;56251;50.324;17.574;2023-01-30T05:53:51;101288.24;;;0.84;62.62
69145;BME280;56251;50.324;17.574;2023-01-30T05:55:39;101281.76;;;0.97;62.13
69145;BME280;56251;50.324;17.574;2023-01-30T05:56:57;101283.24;;;0.89;62.22
69145;BME280;56251;50.324;17.574;2023-01-30T05:58:52;101292.22;;;0.73;63.00
69145;BME280;56251;50.324;17.574;2023-01-30T06:00:04;101299.02;;;0.74;63.27
69145;BME280;56251;50.324;17.574;2023-01-30T06:01:58;101298.94;;;0.94;62.72
69145;BME280;56251;50.324;17.574;2023-01-30T06:03:10;101292.83;;;1.02;62.42
69145;BME280;56251;50.324;17.574;2023-01-30T06:05:06;101294.85;;;1.09;62.05
69145;BME280;56251;50.324;17.574;2023-01-30T06:06:17;101297.02;;;1.20;62.06
69145;BME280;56251;50.324;17.574;2023-01-30T06:08:13;101293.60;;;1.39;62.00
69145;BME280;56251;50.324;17.574;2023-01-30T06:09:23;101300.33;;;1.42;61.94
69145;BME280;56251;50.324;17.574;2023-01-30T06:11:19;101308.69;;;1.43;61.36
69145;BME280;56251;50.324;17.574;2023-01-30T06:12:29;101309.13;;;1.51;61.27
69145;BME280;56251;50.324;17.574;2023-01-30T06:14:25;101314.06;;;1.63;61.06
69145;BME280;56251;50.324;17.574;2023-01-30T06:15:35;101319.66;;;1.56;60.45
69145;BME280;56251;50.324;17.574;2023-01-30T06:17:31;101316.00;;;1.66;60.14
69145;BME280;56251;50.324;17.574;2023-01-30T06:18:41;101321.24;;;1.68;60.05
69145;BME280;56251;50.324;17.574;2023-01-30T06:20:37;101325.84;;;1.48;60.52
69145;BME280;56251;50.324;17.574;2023-01-30T06:21:48;101322.92;;;1.48;60.47
69145;BME280;56251;50.324;17.574;2023-01-30T06:23:43;101320.20;;;1.61;60.24
69145;BME280;56251;50.324;17.574;2023-01-30T06:24:54;101320.63;;;1.67;59.99
69145;BME280;56251;50.324;17.574;2023-01-30T06:26:50;101302.36;;;1.79;59.86
69145;BME280;56251;50.324;17.574;2023-01-30T06:28:00;101291.98;;;1.84;60.15
69145;BME280;56251;50.324;17.574;2023-01-30T06:29:56;101285.52;;;1.91;60.31
69145;BME280;56251;50.324;17.574;2023-01-30T06:31:07;101277.61;;;1.95;60.15
69145;BME280;56251;50.324;17.574;2023-01-30T06:33:02;101281.35;;;2.02;60.00
69145;BME280;56251;50.324;17.574;2023-01-30T06:34:13;101275.11;;;2.04;59.81
69145;BME280;56251;50.324;17.574;2023-01-30T06:36:09;101279.31;;;2.05;59.62
69145;BME280;56251;50.324;17.574;2023-01-30T06:37:19;101270.41;;;2.04;59.26
69145;BME280;56251;50.324;17.574;2023-01-30T06:39:15;101269.43;;;2.00;59.30
69145;BME280;56251;50.324;17.574;2023-01-30T06:40:25;101255.45;;;1.96;59.40
69145;BME280;56251;50.324;17.574;2023-01-30T06:42:21;101252.09;;;1.90;59.38
69145;BME280;56251;50.324;17.574;2023-01-30T06:43:31;101251.97;;;1.92;59.28
69145;BME280;56251;50.324;17.574;2023-01-30T06:45:27;101247.32;;;1.91;59.28
69145;BME280;56251;50.324;17.574;2023-01-30T06:46:37;101243.66;;;1.88;59.03
69145;BME280;56251;50.324;17.574;2023-01-30T06:48:33;101225.40;;;1.86;59.16
69145;BME280;56251;50.324;17.574;2023-01-30T06:49:44;101224.73;;;1.74;59.58
69145;BME280;56251;50.324;17.574;2023-01-30T06:51:39;101220.30;;;1.72;59.55
69145;BME280;56251;50.324;17.574;2023-01-30T06:52:51;101230.28;;;1.61;59.72
69145;BME280;56251;50.324;17.574;2023-01-30T06:54:45;101228.22;;;1.62;59.70
69145;BME280;56251;50.324;17.574;2023-01-30T06:55:58;101223.97;;;1.46;59.94
69145;BME280;56251;50.324;17.574;2023-01-30T06:58:02;101227.38;;;1.52;60.03
69145;BME280;56251;50.324;17.574;2023-01-30T06:59:04;101229.63;;;1.42;60.24
69145;BME280;56251;50.324;17.574;2023-01-30T07:01:08;101230.02;;;1.45;60.59
69145;BME280;56251;50.324;17.574;2023-01-30T07:02:11;101225.08;;;1.50;60.58
69145;BME280;56251;50.324;17.574;2023-01-30T07:04:15;101214.77;;;1.75;60.24
69145;BME280;56251;50.324;17.574;2023-01-30T07:05:17;101213.99;;;1.78;60.26
69145;BME280;56251;50.324;17.574;2023-01-30T07:07:21;101203.32;;;1.91;60.04
69145;BME280;56251;50.324;17.574;2023-01-30T07:08:23;101196.76;;;1.97;59.85
69145;BME280;56251;50.324;17.574;2023-01-30T07:10:31;101197.38;;;1.91;59.84
69145;BME280;56251;50.324;17.574;2023-01-30T07:11:29;101201.18;;;1.87;59.83
69145;BME280;56251;50.324;17.574;2023-01-30T07:13:37;101218.40;;;1.81;60.25
69145;BME280;56251;50.324;17.574;2023-01-30T07:14:35;101217.34;;;1.80;60.58
69145;BME280;56251;50.324;17.574;2023-01-30T07:16:43;101203.09;;;1.69;62.01
69145;BME280;56251;50.324;17.574;2023-01-30T07:17:42;101201.31;;;1.72;62.17
69145;BME280;56251;50.324;17.574;2023-01-30T07:19:49;101197.19;;;1.72;62.53
69145;BME280;56251;50.324;17.574;2023-01-30T07:20:48;101196.38;;;1.65;62.64
69145;BME280;56251;50.324;17.574;2023-01-30T07:22:56;101197.97;;;1.69;62.82
69145;BME280;56251;50.324;17.574;2023-01-30T07:23:54;101203.30;;;1.90;62.47
69145;BME280;56251;50.324;17.574;2023-01-30T07:26:03;101208.02;;;2.11;61.90
69145;BME280;56251;50.324;17.574;2023-01-30T07:27:00;101202.61;;;2.21;61.69
69145;BME280;56251;50.324;17.574;2023-01-30T07:29:09;101184.89;;;2.56;60.98
69145;BME280;56251;50.324;17.574;2023-01-30T07:30:07;101191.37;;;2.68;60.57
69145;BME280;56251;50.324;17.574;2023-01-30T07:32:17;101174.63;;;2.88;59.38
69145;BME280;56251;50.324;17.574;2023-01-30T07:33:13;101166.51;;;3.09;59.15
69145;BME280;56251;50.324;17.574;2023-01-30T07:35:25;101162.55;;;3.51;58.20
69145;BME280;56251;50.324;17.574;2023-01-30T07:36:19;101150.80;;;3.59;57.63
69145;BME280;56251;50.324;17.574;2023-01-30T07:38:32;101156.82;;;3.83;55.90
69145;BME280;56251;50.324;17.574;2023-01-30T07:39:25;101150.92;;;3.84;56.01
69145;BME280;56251;50.324;17.574;2023-01-30T07:41:38;101134.04;;;4.15;54.86
69145;BME280;56251;50.324;17.574;2023-01-30T07:42:31;101135.09;;;4.11;54.76
69145;BME280;56251;50.324;17.574;2023-01-30T07:44:44;101138.52;;;4.42;54.90
69145;BME280;56251;50.324;17.574;2023-01-30T07:45:44;101129.78;;;4.38;54.72
69145;BME280;56251;50.324;17.574;2023-01-30T07:47:49;101128.95;;;4.49;54.29
69145;BME280;56251;50.324;17.574;2023-01-30T07:48:47;101128.55;;;4.49;53.86
69145;BME280;56251;50.324;17.574;2023-01-30T07:50:56;101133.80;;;4.66;52.98
69145;BME280;56251;50.324;17.574;2023-01-30T07:51:53;101127.95;;;4.68;53.15
69145;BME280;56251;50.324;17.574;2023-01-30T07:54:02;101123.01;;;4.76;53.02
69145;BME280;56251;50.324;17.574;2023-01-30T07:54:59;101118.45;;;4.70;52.47
69145;BME280;56251;50.324;17.574;2023-01-30T07:57:08;101124.84;;;4.80;52.17
69145;BME280;56251;50.324;17.574;2023-01-30T07:58:14;101119.68;;;4.74;52.02
69145;BME280;56251;50.324;17.574;2023-01-30T08:00:15;101121.35;;;4.56;52.09
69145;BME280;56251;50.324;17.574;2023-01-30T08:01:18;101120.27;;;4.66;52.27
69145;BME280;56251;50.324;17.574;2023-01-30T08:03:23;101112.09;;;4.96;52.11
69145;BME280;56251;50.324;17.574;2023-01-30T08:04:24;101111.79;;;5.13;51.93
69145;BME280;56251;50.324;17.574;2023-01-30T08:06:29;101110.79;;;5.30;50.69
69145;BME280;56251;50.324;17.574;2023-01-30T08:07:30;101107.52;;;5.31;50.34
69145;BME280;56251;50.324;17.574;2023-01-30T08:09:35;101104.48;;;5.48;50.32
69145;BME280;56251;50.324;17.574;2023-01-30T08:10:36;101101.34;;;5.33;49.90
69145;BME280;56251;50.324;17.574;2023-01-30T08:12:41;101103.60;;;5.40;49.90
69145;BME280;56251;50.324;17.574;2023-01-30T08:13:43;101097.73;;;5.49;49.74
69145;BME280;56251;50.324;17.574;2023-01-30T08:15:47;101091.50;;;5.68;49.84
69145;BME280;56251;50.324;17.574;2023-01-30T08:16:49;101091.21;;;5.79;49.90
69145;BME280;56251;50.324;17.574;2023-01-30T08:18:54;101084.78;;;5.86;49.32
69145;BME280;56251;50.324;17.574;2023-01-30T08:19:56;101082.70;;;5.94;49.21
69145;BME280;56251;50.324;17.574;2023-01-30T08:22:00;101088.83;;;5.97;49.12
69145;BME280;56251;50.324;17.574;2023-01-30T08:23:02;101085.76;;;6.00;49.20
69145;BME280;56251;50.324;17.574;2023-01-30T08:25:06;101082.15;;;6.06;49.30